モスクワ/シェレメーチエヴォ の空港の天気 - METARとTAF

シェレメーチエヴォ国際空港(モスクワ) ( UUEE / SVO ) - ロシア モスクワ
飛行場実況気象(Metar)
観測時間01/20 20:30 MSK (01/20 17:30 UTC)
風向・風速西 4m/s
視程10km以上
天気現象
なし
気温-6℃
湿度73%
気圧1013hPa
METARUUEE 201730Z 26004MPS CAVOK M06/M10 Q1013 R24R/420245 R24L/420251 NOSIG
過去の天気等 Google飛行場航空写真 Wunderground天気予報

過去48時間のMETAR

飛行場予報(TAF)
発表時間: 1/20 19:57 MSK (1/20 16:57 UTC)
予報対象時間: 20日21時 MSK ~ 21日21時 MSK
風向・風速西 5m/s
視程9,000m
全天の4割程度の雲 雲底高度 300m
21日0時 MSK ~ 21日2時 MSK に徐々に
視程3,000m
天気現象弱い雪
全天を覆う雲 雲底高度 210m
21日6時 MSK ~ 21日21時 MSK に一時的に
風向・風速西北西 12m/s
視程1,200m
天気現象しゅう雪
全天を覆う雲 雲底高度 120m
全天の8割程度の積乱雲 雲底高度 300m
TAF UUEE 201657Z 2018/2118 27005MPS 9000 SCT010 TXM03/2115Z TNM10/2100Z
BECMG 2021/2023 3000 -SN OVC007
TEMPO 2103/2118 30012MPS 1200 SHSN OVC004 BKN010CB